createdAt,value
2019-03-30T00:01:18.416Z,3.40
2019-03-30T00:03:47.196Z,3.40
2019-03-30T00:06:15.759Z,3.40
2019-03-30T00:08:44.228Z,3.40
2019-03-30T00:11:12.759Z,3.40
2019-03-30T00:13:41.269Z,3.40
2019-03-30T00:16:09.834Z,3.30
2019-03-30T00:18:41.231Z,3.30
2019-03-30T00:21:08.579Z,3.20
2019-03-30T00:23:37.045Z,3.20
2019-03-30T00:26:05.585Z,3.10
2019-03-30T00:28:34.079Z,3.10
2019-03-30T00:31:02.545Z,3.10
2019-03-30T00:33:31.012Z,3.10
2019-03-30T00:35:59.736Z,3.00
2019-03-30T00:38:28.213Z,3.00
2019-03-30T00:40:56.684Z,3.00
2019-03-30T00:43:25.243Z,3.00
2019-03-30T00:45:53.723Z,3.00
2019-03-30T00:48:22.260Z,3.00
2019-03-30T00:50:50.757Z,3.00
2019-03-30T00:53:19.239Z,3.10
2019-03-30T00:55:47.779Z,3.10
2019-03-30T00:58:16.329Z,3.10
2019-03-30T01:00:44.793Z,3.00
2019-03-30T01:03:13.267Z,3.00
2019-03-30T01:05:41.838Z,3.00
2019-03-30T01:08:10.377Z,2.90
2019-03-30T01:10:38.840Z,2.80
2019-03-30T01:13:07.346Z,2.70
2019-03-30T01:15:35.822Z,2.70
2019-03-30T01:18:04.496Z,2.70
2019-03-30T01:20:32.997Z,2.70
2019-03-30T01:23:01.476Z,2.60
2019-03-30T01:25:30.017Z,2.60
2019-03-30T01:27:58.580Z,2.60
2019-03-30T01:30:27.118Z,2.60
2019-03-30T01:32:55.576Z,2.60
2019-03-30T01:35:24.339Z,2.60
2019-03-30T01:37:52.919Z,2.50
2019-03-30T01:40:21.379Z,2.40
2019-03-30T01:42:49.883Z,2.40
2019-03-30T01:45:18.557Z,2.40
2019-03-30T01:47:47.244Z,2.40
2019-03-30T01:50:17.555Z,2.40
2019-03-30T01:52:46.388Z,2.40
2019-03-30T01:55:14.851Z,2.30
2019-03-30T01:57:43.354Z,2.30
2019-03-30T02:00:12.727Z,2.30
2019-03-30T02:02:41.264Z,2.30
2019-03-30T02:05:10.807Z,2.30
2019-03-30T02:07:39.265Z,2.30
2019-03-30T02:10:08.763Z,2.40
2019-03-30T02:12:37.598Z,2.40
2019-03-30T02:15:06.813Z,2.30
2019-03-30T02:17:35.275Z,2.40
2019-03-30T02:20:06.513Z,2.30
2019-03-30T02:22:35.000Z,2.30
2019-03-30T02:25:04.645Z,2.20
2019-03-30T02:27:32.357Z,2.10
2019-03-30T02:30:00.820Z,2.00
2019-03-30T02:32:29.290Z,2.00
2019-03-30T02:34:57.800Z,2.10
2019-03-30T02:37:26.336Z,2.10
2019-03-30T02:39:54.951Z,2.00
2019-03-30T02:42:23.450Z,2.00
2019-03-30T02:44:51.913Z,2.00
2019-03-30T02:47:20.650Z,2.00
2019-03-30T02:49:49.147Z,2.00
2019-03-30T02:52:17.692Z,1.90
2019-03-30T02:54:46.166Z,1.90
2019-03-30T02:57:14.837Z,1.70
2019-03-30T02:59:43.381Z,1.70
2019-03-30T03:02:11.931Z,1.70
2019-03-30T03:04:40.505Z,1.70
2019-03-30T03:07:09.037Z,1.80
2019-03-30T03:09:37.650Z,1.80
2019-03-30T03:12:06.212Z,1.80
2019-03-30T03:14:34.674Z,1.90
2019-03-30T03:17:03.150Z,1.90
2019-03-30T03:19:31.718Z,1.90
2019-03-30T03:22:00.271Z,1.90
2019-03-30T03:24:28.818Z,1.90
2019-03-30T03:26:57.396Z,1.90
2019-03-30T03:29:25.950Z,1.90
2019-03-30T03:31:54.502Z,1.90
2019-03-30T03:34:23.078Z,1.90
2019-03-30T03:36:51.637Z,1.80
2019-03-30T03:39:20.165Z,1.90
2019-03-30T03:41:49.473Z,1.90
2019-03-30T03:44:18.008Z,1.90
2019-03-30T03:46:46.545Z,1.90
2019-03-30T03:49:15.123Z,1.90
2019-03-30T03:51:44.498Z,1.80
2019-03-30T03:54:12.965Z,1.80
2019-03-30T03:56:41.712Z,1.60
2019-03-30T03:59:11.520Z,1.60
2019-03-30T04:01:41.439Z,1.60
2019-03-30T04:04:12.619Z,1.60
2019-03-30T04:06:43.580Z,1.50
2019-03-30T04:09:13.569Z,1.50
2019-03-30T04:11:43.671Z,1.50
2019-03-30T04:14:13.866Z,1.50
2019-03-30T04:16:42.470Z,1.50
2019-03-30T04:19:11.110Z,1.50
2019-03-30T04:21:44.105Z,1.50
2019-03-30T04:24:09.847Z,1.40
2019-03-30T04:26:38.432Z,1.40
2019-03-30T04:29:06.967Z,1.30
2019-03-30T04:31:35.516Z,1.40
2019-03-30T04:34:04.088Z,1.40
2019-03-30T04:36:32.638Z,1.50
2019-03-30T04:39:01.248Z,1.50
2019-03-30T04:41:29.813Z,1.40
2019-03-30T04:43:58.466Z,1.40
2019-03-30T04:46:26.933Z,1.50
2019-03-30T04:48:55.501Z,1.50
2019-03-30T04:51:23.959Z,1.50
2019-03-30T04:53:52.495Z,1.60
2019-03-30T04:56:20.993Z,1.50
2019-03-30T04:58:49.461Z,1.50
2019-03-30T05:01:17.929Z,1.40
2019-03-30T05:03:46.504Z,1.40
2019-03-30T05:06:15.043Z,1.50
2019-03-30T05:08:43.507Z,1.50
2019-03-30T05:11:12.077Z,1.50
2019-03-30T05:13:40.622Z,1.60
2019-03-30T05:16:09.083Z,1.70
2019-03-30T05:18:37.604Z,1.80
2019-03-30T05:21:06.073Z,1.90
2019-03-30T05:23:34.620Z,2.00
2019-03-30T05:26:03.308Z,2.10
2019-03-30T05:28:31.844Z,2.10
2019-03-30T05:31:00.308Z,2.20
2019-03-30T05:33:28.817Z,2.40
2019-03-30T05:35:57.348Z,2.50
2019-03-30T05:38:25.813Z,2.50
2019-03-30T05:40:54.317Z,2.50
2019-03-30T05:43:22.844Z,2.50
2019-03-30T05:45:51.773Z,2.60
2019-03-30T05:48:20.278Z,2.60
2019-03-30T05:50:48.818Z,2.70
2019-03-30T05:53:17.356Z,2.70
2019-03-30T05:55:45.924Z,2.80
2019-03-30T05:58:14.397Z,3.00
2019-03-30T06:00:42.869Z,3.20
2019-03-30T06:03:11.444Z,3.40
2019-03-30T06:05:39.909Z,3.60
2019-03-30T06:08:08.447Z,3.70
2019-03-30T06:10:38.753Z,4.00
2019-03-30T06:13:07.220Z,4.10
2019-03-30T06:15:35.761Z,4.20
2019-03-30T06:18:05.315Z,4.50
2019-03-30T06:20:33.095Z,4.60
2019-03-30T06:23:01.559Z,4.80
2019-03-30T06:25:30.144Z,5.00
2019-03-30T06:27:58.674Z,5.10
2019-03-30T06:30:27.780Z,5.30
2019-03-30T06:32:56.313Z,5.50
2019-03-30T06:35:24.865Z,5.60
2019-03-30T06:37:53.394Z,5.90
2019-03-30T06:40:21.931Z,6.10
2019-03-30T06:42:50.471Z,6.30
2019-03-30T06:45:19.021Z,6.50
2019-03-30T06:47:47.850Z,6.80
2019-03-30T06:50:16.560Z,7.10
2019-03-30T06:52:56.831Z,7.30
2019-03-30T06:55:15.326Z,7.50
2019-03-30T06:57:43.927Z,7.60
2019-03-30T07:00:14.255Z,7.60
2019-03-30T07:02:43.421Z,7.80
2019-03-30T07:05:12.528Z,8.00
2019-03-30T07:07:44.073Z,8.10
2019-03-30T07:10:14.289Z,8.50
2019-03-30T07:12:44.022Z,8.50
2019-03-30T07:15:11.706Z,8.70
2019-03-30T07:17:43.353Z,8.80
2019-03-30T07:20:14.964Z,8.40
2019-03-30T07:22:43.596Z,8.60
2019-03-30T07:25:12.236Z,8.80
2019-03-30T07:27:40.705Z,9.00
2019-03-30T07:30:09.304Z,9.40
2019-03-30T07:32:37.880Z,9.20
2019-03-30T07:35:07.484Z,9.20
2019-03-30T07:37:35.952Z,9.40
2019-03-30T07:40:06.301Z,9.70
2019-03-30T07:42:34.833Z,9.90
2019-03-30T07:45:04.544Z,9.60
2019-03-30T07:47:32.335Z,9.90
2019-03-30T07:50:01.202Z,10.40
2019-03-30T07:52:29.818Z,10.70
2019-03-30T07:54:58.326Z,11.00
2019-03-30T07:57:26.885Z,10.80
2019-03-30T07:59:55.360Z,10.90
2019-03-30T08:02:23.888Z,10.90
2019-03-30T08:04:52.502Z,10.90
2019-03-30T08:07:21.047Z,10.90
2019-03-30T08:09:49.640Z,11.10
2019-03-30T08:12:18.344Z,11.40
2019-03-30T08:14:46.878Z,11.60
2019-03-30T08:17:15.921Z,11.70
2019-03-30T08:19:44.497Z,12.00
2019-03-30T08:22:12.985Z,11.90
2019-03-30T08:24:41.650Z,12.30
2019-03-30T08:27:10.178Z,12.40
2019-03-30T08:29:38.655Z,12.30
2019-03-30T08:32:07.218Z,12.30
2019-03-30T08:34:35.702Z,12.20
2019-03-30T08:37:04.316Z,11.80
2019-03-30T08:39:33.213Z,12.20
2019-03-30T08:42:01.757Z,12.30
2019-03-30T08:44:32.897Z,12.90
2019-03-30T08:47:01.475Z,13.30
2019-03-30T08:49:29.951Z,13.70
2019-03-30T08:52:00.165Z,13.60
2019-03-30T08:54:32.003Z,13.50
2019-03-30T08:57:00.531Z,13.70
2019-03-30T08:59:29.101Z,13.70
2019-03-30T09:01:57.665Z,14.10
2019-03-30T09:04:26.132Z,14.60
2019-03-30T09:06:54.680Z,15.00
2019-03-30T09:09:23.189Z,14.70
2019-03-30T09:11:51.732Z,14.60
2019-03-30T09:14:21.208Z,15.10
2019-03-30T09:16:49.712Z,15.20
2019-03-30T09:19:18.261Z,15.60
2019-03-30T09:21:46.801Z,15.80
2019-03-30T09:24:15.504Z,15.50
2019-03-30T09:26:44.718Z,15.10
2019-03-30T09:29:13.257Z,14.60
2019-03-30T09:31:41.881Z,14.70
2019-03-30T09:34:10.425Z,15.10
2019-03-30T09:36:39.048Z,15.10
2019-03-30T09:39:07.710Z,14.70
2019-03-30T09:41:36.244Z,14.80
2019-03-30T09:44:06.388Z,15.60
2019-03-30T09:46:34.901Z,16.20
2019-03-30T09:49:06.516Z,15.50
2019-03-30T09:51:34.983Z,15.90
2019-03-30T09:54:03.845Z,15.90
2019-03-30T09:56:32.385Z,15.70
2019-03-30T09:59:00.854Z,15.10
2019-03-30T10:01:29.454Z,15.60
2019-03-30T10:03:57.984Z,16.10
2019-03-30T10:06:34.184Z,15.80
2019-03-30T10:08:56.698Z,16.00
2019-03-30T10:11:25.265Z,16.60
2019-03-30T10:13:53.843Z,17.00
2019-03-30T10:16:22.358Z,17.80
2019-03-30T10:18:50.903Z,18.50
2019-03-30T10:21:19.370Z,18.50
2019-03-30T10:23:47.947Z,18.10
2019-03-30T10:26:16.414Z,18.20
2019-03-30T10:28:47.088Z,18.80
2019-03-30T10:31:16.412Z,18.70
2019-03-30T10:33:44.886Z,18.20
2019-03-30T10:36:13.436Z,17.50
2019-03-30T10:38:41.958Z,17.40
2019-03-30T10:41:10.490Z,17.40
2019-03-30T10:43:39.029Z,17.80
2019-03-30T10:46:07.641Z,16.90
2019-03-30T10:48:36.162Z,17.70
2019-03-30T10:51:04.632Z,17.40
2019-03-30T10:53:33.135Z,17.40
2019-03-30T10:56:02.076Z,17.50
2019-03-30T10:58:30.643Z,18.50
2019-03-30T11:00:59.395Z,17.80
2019-03-30T11:03:27.859Z,18.30
2019-03-30T11:05:56.407Z,17.90
2019-03-30T11:08:24.992Z,18.30
2019-03-30T11:10:53.454Z,19.00
2019-03-30T11:13:21.924Z,19.20
2019-03-30T11:15:50.565Z,19.30
2019-03-30T11:18:19.034Z,19.80
2019-03-30T11:20:47.599Z,20.60
2019-03-30T11:23:16.243Z,20.50
2019-03-30T11:25:44.797Z,20.00
2019-03-30T11:28:13.313Z,19.40
2019-03-30T11:30:41.868Z,18.90
2019-03-30T11:33:10.513Z,18.80
2019-03-30T11:35:39.061Z,18.60
2019-03-30T11:38:13.207Z,19.30
2019-03-30T11:40:46.243Z,19.90
2019-03-30T11:43:14.949Z,19.10
2019-03-30T11:45:43.518Z,18.00
2019-03-30T11:48:12.095Z,18.40
2019-03-30T11:50:40.662Z,18.50
2019-03-30T11:53:12.144Z,18.80
2019-03-30T11:55:40.705Z,19.10
2019-03-30T11:58:10.276Z,19.20
2019-03-30T12:00:38.073Z,19.80
2019-03-30T12:03:06.707Z,20.20
2019-03-30T12:05:35.232Z,21.10
2019-03-30T12:08:05.684Z,21.90
2019-03-30T12:10:34.741Z,23.00
2019-03-30T12:13:03.289Z,22.50
2019-03-30T12:15:36.809Z,23.10
2019-03-30T12:18:05.626Z,23.70
2019-03-30T12:21:07.335Z,23.30
2019-03-30T12:26:30.639Z,23.20
2019-03-30T12:28:59.273Z,22.50
2019-03-30T12:31:31.162Z,22.30
2019-03-30T12:34:12.929Z,22.80
2019-03-30T12:36:40.182Z,22.80
2019-03-30T12:39:09.802Z,24.40
2019-03-30T12:41:38.489Z,23.60
2019-03-30T12:44:07.064Z,24.00
2019-03-30T12:46:35.770Z,23.60
2019-03-30T12:49:25.843Z,23.40
2019-03-30T12:51:54.343Z,23.50
2019-03-30T12:54:24.551Z,24.70
2019-03-30T12:56:53.100Z,26.00
2019-03-30T12:59:22.264Z,24.90
2019-03-30T13:01:51.889Z,25.00
2019-03-30T13:04:22.180Z,26.00
2019-03-30T13:06:51.177Z,26.90
2019-03-30T13:09:20.588Z,27.50
2019-03-30T13:11:49.124Z,26.10
2019-03-30T13:14:17.594Z,25.10
2019-03-30T13:16:46.120Z,24.30
2019-03-30T13:19:14.661Z,23.70
2019-03-30T13:21:52.502Z,23.70
2019-03-30T13:24:13.631Z,24.00
2019-03-30T13:26:42.182Z,25.00
2019-03-30T13:29:10.714Z,26.30
2019-03-30T13:31:39.608Z,27.80
2019-03-30T13:34:08.153Z,27.80
2019-03-30T13:36:40.737Z,27.60
2019-03-30T13:39:09.653Z,27.40
2019-03-30T13:41:38.321Z,26.40
2019-03-30T13:44:12.613Z,25.20
2019-03-30T13:46:41.286Z,26.00
2019-03-30T13:49:24.587Z,26.50
2019-03-30T13:51:57.874Z,26.60
2019-03-30T13:54:26.368Z,26.60
2019-03-30T13:56:54.969Z,26.50
2019-03-30T13:59:23.484Z,26.40
2019-03-30T14:01:53.241Z,26.90
2019-03-30T14:04:21.844Z,27.60
2019-03-30T14:06:50.358Z,25.80
2019-03-30T14:09:18.893Z,25.30
2019-03-30T14:12:02.089Z,24.60
2019-03-30T14:14:30.653Z,24.70
2019-03-30T14:16:59.191Z,24.80
2019-03-30T14:19:27.722Z,24.90
2019-03-30T14:21:56.225Z,24.50
2019-03-30T14:24:24.755Z,24.20
2019-03-30T14:29:29.165Z,24.70
2019-03-30T14:31:57.674Z,25.20
2019-03-30T14:34:26.169Z,25.50
2019-03-30T14:36:58.783Z,25.30
2019-03-30T14:39:27.329Z,24.90
2019-03-30T14:41:55.881Z,24.50
2019-03-30T14:44:24.454Z,25.10
2019-03-30T14:46:52.917Z,25.10
2019-03-30T14:49:21.445Z,25.60
2019-03-30T14:51:49.951Z,26.30
2019-03-30T14:54:18.492Z,26.60
2019-03-30T14:56:47.036Z,26.00
2019-03-30T14:59:15.623Z,26.10
2019-03-30T15:01:44.256Z,24.90
2019-03-30T15:04:12.840Z,26.00
2019-03-30T15:06:41.333Z,25.70
2019-03-30T15:09:09.797Z,25.30
2019-03-30T15:11:38.261Z,25.40
2019-03-30T15:14:06.761Z,25.60
2019-03-30T15:16:35.309Z,24.60
2019-03-30T15:19:03.914Z,24.20
2019-03-30T15:21:32.485Z,23.60
2019-03-30T15:24:01.021Z,24.70
2019-03-30T15:26:29.489Z,25.60
2019-03-30T15:28:58.060Z,24.80
2019-03-30T15:31:26.618Z,25.40
2019-03-30T15:33:55.145Z,26.70
2019-03-30T15:36:23.681Z,25.60
2019-03-30T15:38:52.183Z,25.20
2019-03-30T15:41:20.720Z,25.60
2019-03-30T15:43:51.990Z,25.50
2019-03-30T15:46:19.561Z,24.50
2019-03-30T15:48:48.028Z,24.40
2019-03-30T15:51:16.669Z,23.50
2019-03-30T15:53:45.140Z,23.70
2019-03-30T15:56:13.600Z,23.50
2019-03-30T15:58:42.119Z,22.30
2019-03-30T16:01:10.801Z,21.80
2019-03-30T16:03:39.438Z,21.50
2019-03-30T16:06:08.915Z,21.10
2019-03-30T16:08:36.669Z,21.00
2019-03-30T16:11:05.342Z,20.70
2019-03-30T16:13:33.926Z,20.30
2019-03-30T16:16:02.457Z,20.20
2019-03-30T16:18:30.978Z,19.90
2019-03-30T16:20:59.525Z,19.40
2019-03-30T16:23:28.124Z,19.30
2019-03-30T16:25:56.621Z,19.20
2019-03-30T16:28:25.168Z,19.30
2019-03-30T16:30:54.830Z,18.90
2019-03-30T16:33:23.381Z,18.80
2019-03-30T16:36:02.707Z,18.90
2019-03-30T16:38:30.419Z,18.80
2019-03-30T16:40:58.940Z,18.60
2019-03-30T16:43:27.457Z,18.60
2019-03-30T16:45:55.929Z,18.30
2019-03-30T16:48:24.417Z,18.10
2019-03-30T16:50:52.993Z,17.90
2019-03-30T16:53:21.536Z,17.70
2019-03-30T16:55:50.075Z,17.50
2019-03-30T16:58:18.700Z,17.40
2019-03-30T17:00:56.235Z,17.10
2019-03-30T17:03:45.889Z,17.00
2019-03-30T17:06:14.355Z,16.90
2019-03-30T17:08:43.000Z,16.70
2019-03-30T17:11:11.464Z,16.50
2019-03-30T17:13:39.938Z,16.40
2019-03-30T17:16:08.454Z,16.30
2019-03-30T17:18:37.000Z,16.10
2019-03-30T17:21:05.539Z,15.90
2019-03-30T17:23:53.491Z,15.60
2019-03-30T17:26:22.028Z,15.40
2019-03-30T17:28:50.567Z,15.20
2019-03-30T17:31:19.250Z,15.00
2019-03-30T17:33:47.791Z,14.90
2019-03-30T17:36:16.272Z,14.80
2019-03-30T17:38:44.846Z,14.70
2019-03-30T17:41:13.477Z,14.60
2019-03-30T17:43:42.084Z,14.50
2019-03-30T17:46:10.652Z,14.30
2019-03-30T17:48:39.251Z,14.30
2019-03-30T17:51:07.734Z,14.10
2019-03-30T17:53:39.327Z,13.90
2019-03-30T17:56:06.693Z,13.70
2019-03-30T17:58:40.586Z,13.50
2019-03-30T18:04:25.189Z,13.10
2019-03-30T18:06:53.692Z,13.00
2019-03-30T18:09:23.810Z,12.90
2019-03-30T18:11:52.424Z,12.80
2019-03-30T18:14:20.921Z,12.80
2019-03-30T18:16:52.589Z,12.70
2019-03-30T18:19:21.420Z,12.70
2019-03-30T18:21:50.010Z,12.70
2019-03-30T18:24:20.357Z,12.50
2019-03-30T18:26:48.984Z,12.30
2019-03-30T18:29:17.505Z,12.20
2019-03-30T18:31:46.138Z,12.10
2019-03-30T18:34:15.825Z,12.10
2019-03-30T18:36:48.179Z,12.00
2019-03-30T18:39:16.807Z,11.90
2019-03-30T18:41:45.510Z,11.80
2019-03-30T18:44:14.324Z,11.80
2019-03-30T18:46:42.794Z,11.60
2019-03-30T18:49:11.264Z,11.40
2019-03-30T18:51:42.580Z,11.40
2019-03-30T18:54:11.656Z,11.30
2019-03-30T18:56:41.105Z,11.10
2019-03-30T18:59:09.777Z,11.10
2019-03-30T19:01:38.243Z,11.20
2019-03-30T19:04:06.715Z,11.20
2019-03-30T19:06:35.351Z,11.10
2019-03-30T19:09:05.684Z,11.00
2019-03-30T19:11:39.306Z,10.90
2019-03-30T19:14:35.811Z,10.90
2019-03-30T19:17:06.064Z,10.80
2019-03-30T19:19:34.630Z,10.70
2019-03-30T19:22:22.506Z,10.60
2019-03-30T19:24:51.054Z,10.60
2019-03-30T19:27:19.620Z,10.50
2019-03-30T19:29:57.651Z,10.50
2019-03-30T19:32:21.054Z,10.50
2019-03-30T19:34:56.201Z,10.50
2019-03-30T19:37:28.268Z,10.40
2019-03-30T19:39:56.816Z,10.40
2019-03-30T19:42:25.355Z,10.20
2019-03-30T19:44:53.914Z,10.10
2019-03-30T19:47:22.549Z,10.00
2019-03-30T19:49:59.111Z,9.90
2019-03-30T19:52:39.301Z,9.90
2019-03-30T19:54:57.899Z,9.80
2019-03-30T19:57:27.866Z,9.70
2019-03-30T20:00:01.653Z,9.80
2019-03-30T20:02:30.195Z,9.70
2019-03-30T20:04:59.130Z,9.80
2019-03-30T20:07:27.673Z,9.80
2019-03-30T20:09:56.203Z,9.90
2019-03-30T20:12:25.382Z,9.90
2019-03-30T20:14:56.289Z,9.80
2019-03-30T20:17:24.813Z,9.70
2019-03-30T20:19:53.349Z,9.80
2019-03-30T20:25:07.746Z,9.90
2019-03-30T20:27:40.053Z,9.80
2019-03-30T20:30:11.983Z,9.80
2019-03-30T20:32:43.185Z,9.90
2019-03-30T20:35:10.872Z,9.80
2019-03-30T20:37:39.482Z,9.80
2019-03-30T20:40:10.561Z,9.70
2019-03-30T20:42:57.123Z,9.60
2019-03-30T20:45:34.686Z,9.40
2019-03-30T20:48:06.086Z,9.30
2019-03-30T20:50:34.686Z,9.20
2019-03-30T20:53:04.706Z,9.10
2019-03-30T20:58:11.863Z,9.10
2019-03-30T21:00:48.409Z,9.20
2019-03-30T21:03:18.597Z,9.10
2019-03-30T21:05:51.462Z,9.10
2019-03-30T21:08:23.435Z,9.10
2019-03-30T21:10:54.820Z,9.10
2019-03-30T21:16:22.333Z,9.20
2019-03-30T21:18:53.672Z,9.30
2019-03-30T21:21:27.272Z,9.30
2019-03-30T21:24:29.117Z,9.30
2019-03-30T21:27:03.338Z,9.30
2019-03-30T21:32:11.582Z,9.10
2019-03-30T21:34:47.321Z,9.20
2019-03-30T21:37:15.938Z,9.30
2019-03-30T21:39:44.625Z,9.50
2019-03-30T21:42:16.593Z,9.50
2019-03-30T21:59:27.389Z,9.60
2019-03-30T22:01:57.814Z,9.60
2019-03-30T22:04:31.209Z,9.70
2019-03-30T22:06:59.814Z,9.60
2019-03-30T22:09:29.488Z,9.60
2019-03-30T22:11:58.268Z,9.50
2019-03-30T22:14:27.575Z,9.40
2019-03-30T22:16:56.038Z,9.40
2019-03-30T22:19:31.271Z,9.20
2019-03-30T22:22:21.476Z,9.10
2019-03-30T22:30:45.256Z,9.50
2019-03-30T22:33:14.374Z,9.70
2019-03-30T22:35:45.161Z,9.80
2019-03-30T22:38:14.166Z,9.90
2019-03-30T22:40:42.945Z,10.00
2019-03-30T22:43:11.585Z,10.00
2019-03-30T22:45:40.188Z,10.00
2019-03-30T22:48:08.875Z,9.90
2019-03-30T22:50:38.613Z,9.70
2019-03-30T22:53:06.293Z,9.80
2019-03-30T22:55:34.804Z,9.80
2019-03-30T22:58:03.352Z,9.80
2019-03-30T23:03:08.804Z,9.80
2019-03-30T23:05:37.434Z,9.60
2019-03-30T23:08:06.068Z,9.50
2019-03-30T23:10:34.815Z,9.40
2019-03-30T23:13:03.528Z,9.40
2019-03-30T23:15:35.137Z,9.40
2019-03-30T23:18:03.899Z,9.40
2019-03-30T23:20:32.525Z,9.50
2019-03-30T23:23:01.207Z,9.60
2019-03-30T23:28:02.106Z,9.80
2019-03-30T23:30:33.720Z,9.80
2019-03-30T23:33:02.338Z,9.80
2019-03-30T23:35:30.936Z,9.80
2019-03-30T23:37:59.545Z,9.90
2019-03-30T23:40:29.706Z,9.80
2019-03-30T23:42:58.368Z,9.80
2019-03-30T23:45:27.040Z,9.80
2019-03-30T23:47:55.592Z,9.70
2019-03-30T23:50:24.161Z,9.60
2019-03-30T23:52:52.628Z,9.60
2019-03-30T23:55:21.089Z,9.50
2019-03-30T23:57:49.597Z,9.50
